Time;durP1;ratioP1;P1;durP2;ratioP2;P2;SDS_P1;SDS_P2;PMS_P1;PMS_P2;Temp;Humidity;BMP_temperature;BMP_pressure;BME280_temperature;BME280_humidity;BME280_pressure;Samples;Min_cycle;Max_cycle;Signal;HPM_P1;HPM_P2
2023/06/19 00:00:55;;;;;;;20.67;7.47;;;17.60;99.90;;;;;;5074452;28;20111;-82
2023/06/19 00:03:21;;;;;;;17.08;8.35;;;17.60;99.90;;;;;;5070059;28;20053;-80
2023/06/19 00:05:46;;;;;;;17.35;8.55;;;17.60;99.90;;;;;;5034501;28;20081;-83
2023/06/19 00:08:12;;;;;;;16.38;8.65;;;17.60;99.90;;;;;;5013662;28;20042;-83
2023/06/19 00:10:38;;;;;;;14.68;7.82;;;17.60;99.90;;;;;;5014906;28;20428;-82
2023/06/19 00:13:04;;;;;;;14.90;7.55;;;17.60;99.90;;;;;;5026363;28;20029;-83
2023/06/19 00:15:29;;;;;;;11.20;6.88;;;17.50;99.90;;;;;;5016616;28;20141;-82
2023/06/19 00:17:56;;;;;;;12.32;6.10;;;17.50;99.90;;;;;;5013305;28;20088;-83
2023/06/19 00:20:24;;;;;;;9.13;5.78;;;17.40;99.90;;;;;;5005047;28;20042;-82
2023/06/19 00:22:51;;;;;;;8.60;5.78;;;17.40;99.90;;;;;;5022363;28;20451;-81
2023/06/19 00:25:20;;;;;;;11.63;6.55;;;17.30;99.90;;;;;;5016393;28;20091;-82
2023/06/19 00:27:47;;;;;;;11.25;6.78;;;17.30;99.90;;;;;;5044917;28;20113;-81
2023/06/19 00:30:13;;;;;;;11.30;6.65;;;17.30;99.90;;;;;;5013150;28;20077;-85
2023/06/19 00:32:46;;;;;;;14.88;6.28;;;17.30;99.90;;;;;;5013156;28;20033;-81
2023/06/19 00:35:15;;;;;;;8.45;6.00;;;17.30;99.90;;;;;;5012756;28;20037;-84
2023/06/19 00:37:44;;;;;;;10.05;6.00;;;17.20;99.90;;;;;;5034596;28;20132;-83
2023/06/19 00:40:21;;;;;;;14.95;6.18;;;17.20;99.90;;;;;;5037043;28;20112;-83
2023/06/19 00:42:47;;;;;;;14.95;6.10;;;17.20;99.90;;;;;;5036955;28;20029;-82
2023/06/19 00:45:13;;;;;;;11.27;5.93;;;17.20;99.90;;;;;;5036930;28;20037;-82
2023/06/19 00:47:38;;;;;;;9.90;7.03;;;17.20;99.90;;;;;;5036416;28;20037;-82
2023/06/19 00:50:05;;;;;;;18.38;6.80;;;17.20;99.90;;;;;;5047811;28;20471;-83
2023/06/19 00:52:31;;;;;;;12.07;6.60;;;17.20;99.90;;;;;;5044823;28;20033;-82
2023/06/19 00:54:57;;;;;;;12.88;6.68;;;17.20;99.90;;;;;;5036782;28;20036;-82
2023/06/19 00:57:23;;;;;;;10.40;5.82;;;17.10;99.90;;;;;;5054842;28;20016;-81
2023/06/19 00:59:49;;;;;;;11.13;5.97;;;17.10;99.90;;;;;;5037862;28;20024;-83
2023/06/19 01:02:15;;;;;;;9.95;6.05;;;17.10;99.90;;;;;;5039143;28;20120;-82
2023/06/19 01:04:41;;;;;;;12.55;5.90;;;17.00;99.90;;;;;;5061448;28;20453;-81
2023/06/19 01:07:11;;;;;;;14.27;5.85;;;17.00;99.90;;;;;;5050085;28;20613;-81
2023/06/19 01:09:53;;;;;;;8.57;5.32;;;17.00;99.90;;;;;;5040538;28;20020;-83
2023/06/19 01:12:23;;;;;;;11.50;5.90;;;16.90;99.90;;;;;;5049759;28;20039;-82
2023/06/19 01:14:54;;;;;;;11.38;6.32;;;16.90;99.90;;;;;;5037320;28;20039;-81
2023/06/19 01:17:21;;;;;;;12.73;6.20;;;16.80;99.90;;;;;;5047234;28;20454;-82
2023/06/19 01:19:48;;;;;;;13.95;5.85;;;16.80;99.90;;;;;;5041644;28;20043;-83
2023/06/19 01:22:34;;;;;;;14.80;6.20;;;16.80;99.90;;;;;;5057832;28;20390;-81
2023/06/19 01:24:59;;;;;;;13.48;5.88;;;16.80;99.90;;;;;;5049756;28;20040;-82
2023/06/19 01:27:29;;;;;;;11.23;5.57;;;16.70;99.90;;;;;;5067514;28;20021;-81
2023/06/19 01:30:00;;;;;;;16.20;6.18;;;16.70;99.90;;;;;;5035999;28;20170;-83
2023/06/19 01:32:47;;;;;;;11.73;5.70;;;16.70;99.90;;;;;;5036264;28;20033;-81
2023/06/19 01:35:14;;;;;;;10.43;5.57;;;16.70;99.90;;;;;;5053981;28;20029;-81
2023/06/19 01:37:41;;;;;;;17.40;6.13;;;16.70;99.90;;;;;;5053698;28;20035;-82
2023/06/19 01:40:11;;;;;;;10.20;6.20;;;16.70;99.90;;;;;;5036115;28;20031;-82
2023/06/19 01:42:40;;;;;;;10.00;5.82;;;16.60;99.90;;;;;;5036060;28;20035;-82
2023/06/19 01:45:07;;;;;;;11.68;6.35;;;16.60;99.90;;;;;;5052726;28;20032;-83
2023/06/19 01:47:33;;;;;;;10.60;5.72;;;16.60;99.90;;;;;;5060997;28;20111;-81
2023/06/19 01:49:59;;;;;;;11.38;5.80;;;16.60;99.90;;;;;;5041963;28;20112;-83
2023/06/19 01:52:25;;;;;;;15.85;6.43;;;16.60;99.90;;;;;;5066265;28;20052;-83
2023/06/19 01:54:51;;;;;;;14.02;6.35;;;16.50;99.90;;;;;;5069290;28;20456;-82
2023/06/19 01:57:18;;;;;;;14.32;5.80;;;16.50;99.90;;;;;;5045556;28;20060;-82
2023/06/19 01:59:44;;;;;;;12.57;6.07;;;16.50;99.90;;;;;;5035633;28;20116;-84
2023/06/19 02:02:10;;;;;;;9.95;6.05;;;16.50;99.90;;;;;;5047693;28;20119;-83
2023/06/19 02:04:36;;;;;;;12.38;5.95;;;16.50;99.90;;;;;;5053303;28;20049;-83
2023/06/19 02:07:01;;;;;;;18.15;6.80;;;16.50;99.90;;;;;;5040997;28;20051;-82
2023/06/19 02:09:28;;;;;;;9.00;5.95;;;16.50;99.90;;;;;;5041218;28;20029;-83
2023/06/19 02:11:53;;;;;;;13.68;6.45;;;16.50;99.90;;;;;;5041072;28;20033;-82
2023/06/19 02:14:19;;;;;;;13.30;6.63;;;16.50;99.90;;;;;;5063165;28;20037;-81
2023/06/19 02:16:45;;;;;;;13.07;6.60;;;16.40;99.90;;;;;;5047005;28;20020;-81
2023/06/19 02:19:11;;;;;;;11.32;6.45;;;16.40;99.90;;;;;;5036666;28;20032;-83
2023/06/19 02:21:37;;;;;;;12.52;6.32;;;16.40;99.90;;;;;;5066969;28;20142;-83
2023/06/19 02:24:04;;;;;;;13.00;6.45;;;16.40;99.90;;;;;;5032693;28;20067;-84
2023/06/19 02:26:30;;;;;;;11.98;6.72;;;16.40;99.90;;;;;;5061388;28;20101;-83
2023/06/19 02:28:56;;;;;;;9.25;6.18;;;16.40;99.90;;;;;;5045357;28;20091;-81
2023/06/19 02:31:25;;;;;;;13.05;7.32;;;16.40;99.90;;;;;;5045726;28;20036;-83
2023/06/19 02:33:51;;;;;;;9.70;6.90;;;16.30;99.90;;;;;;5067790;28;20035;-81
2023/06/19 02:36:19;;;;;;;13.15;6.85;;;16.40;99.90;;;;;;5053851;28;20025;-84
2023/06/19 02:38:50;;;;;;;13.80;7.35;;;16.40;99.90;;;;;;5060244;28;20021;-82
2023/06/19 02:41:18;;;;;;;12.63;7.40;;;16.40;99.90;;;;;;5053126;28;20025;-82
2023/06/19 02:43:49;;;;;;;15.40;7.68;;;16.50;99.90;;;;;;5039331;28;20041;-82
2023/06/19 02:46:15;;;;;;;12.45;6.18;;;16.50;99.90;;;;;;5038408;28;20052;-84
2023/06/19 02:48:41;;;;;;;17.10;7.95;;;16.50;99.90;;;;;;5038201;28;20052;-83
2023/06/19 02:51:06;;;;;;;14.27;7.03;;;16.50;99.90;;;;;;5045609;28;20087;-82
2023/06/19 02:53:32;;;;;;;12.52;7.25;;;16.50;99.90;;;;;;5034733;28;20490;-83
2023/06/19 02:55:58;;;;;;;16.23;7.63;;;16.50;99.90;;;;;;5037015;28;20029;-83
2023/06/19 02:58:25;;;;;;;11.18;6.82;;;16.50;99.90;;;;;;5034975;28;20030;-85
2023/06/19 03:00:50;;;;;;;14.30;7.55;;;16.40;99.90;;;;;;5035725;28;20356;-83
2023/06/19 03:03:16;;;;;;;10.98;6.80;;;16.40;99.90;;;;;;5064054;28;20094;-81
2023/06/19 03:05:42;;;;;;;14.75;7.28;;;16.40;99.90;;;;;;5035303;28;20029;-81
2023/06/19 03:08:08;;;;;;;17.73;7.53;;;16.40;99.90;;;;;;5049434;28;20115;-84
2023/06/19 03:10:33;;;;;;;11.43;7.30;;;16.40;99.90;;;;;;5065798;28;20055;-82
2023/06/19 03:12:59;;;;;;;13.00;7.10;;;16.40;99.90;;;;;;5046560;28;20029;-84
2023/06/19 03:15:25;;;;;;;16.15;7.93;;;16.40;99.90;;;;;;5040530;28;20033;-84
2023/06/19 03:17:53;;;;;;;13.52;8.00;;;16.40;99.90;;;;;;5045113;28;20039;-82
2023/06/19 03:20:20;;;;;;;11.68;7.40;;;16.40;99.90;;;;;;5058620;28;20359;-84
2023/06/19 03:22:46;;;;;;;17.45;7.70;;;16.40;99.90;;;;;;5056145;28;20028;-82
2023/06/19 03:25:12;;;;;;;15.70;6.45;;;16.40;99.90;;;;;;5056429;28;20029;-82
2023/06/19 03:27:38;;;;;;;15.32;7.40;;;16.40;99.90;;;;;;5038454;28;20039;-82
2023/06/19 03:30:06;;;;;;;14.05;6.85;;;16.50;99.90;;;;;;5038122;28;20033;-83
2023/06/19 03:32:33;;;;;;;15.48;7.50;;;16.40;99.90;;;;;;5038470;28;20033;-80
2023/06/19 03:34:59;;;;;;;13.65;8.13;;;16.50;99.90;;;;;;5038246;28;20663;-80
2023/06/19 03:37:25;;;;;;;14.52;7.75;;;16.50;99.90;;;;;;5038026;28;20115;-81
2023/06/19 03:39:50;;;;;;;15.20;6.82;;;16.50;99.90;;;;;;5055991;28;20456;-81
2023/06/19 03:42:16;;;;;;;12.68;7.32;;;16.50;99.90;;;;;;5038179;28;20021;-82
2023/06/19 03:44:42;;;;;;;14.30;7.50;;;16.50;99.90;;;;;;5037861;28;20033;-81
2023/06/19 03:47:08;;;;;;;15.70;7.28;;;16.60;99.90;;;;;;5037914;28;20028;-83
2023/06/19 03:49:33;;;;;;;19.25;8.30;;;16.60;99.90;;;;;;5055972;28;20029;-83
2023/06/19 03:51:59;;;;;;;16.75;7.70;;;16.60;99.90;;;;;;5037686;28;20071;-81
2023/06/19 03:54:26;;;;;;;22.33;7.72;;;16.70;99.90;;;;;;5038164;28;20078;-82
2023/06/19 03:56:52;;;;;;;14.02;7.40;;;16.70;99.90;;;;;;5055704;28;20025;-82
2023/06/19 03:59:18;;;;;;;14.88;7.55;;;16.70;99.90;;;;;;5060233;28;20029;-82
2023/06/19 04:01:43;;;;;;;14.93;7.90;;;16.80;99.90;;;;;;5055735;28;20021;-84
2023/06/19 04:04:09;;;;;;;13.00;7.63;;;16.80;99.90;;;;;;5054985;28;20130;-85
2023/06/19 04:06:35;;;;;;;12.77;7.43;;;16.90;99.90;;;;;;5037720;28;20414;-85
2023/06/19 04:09:01;;;;;;;13.88;6.50;;;17.00;99.90;;;;;;5055889;28;20032;-83
2023/06/19 04:11:26;;;;;;;16.13;6.80;;;17.00;99.90;;;;;;5063531;28;20035;-84
2023/06/19 04:13:52;;;;;;;12.27;6.65;;;17.10;99.90;;;;;;5045443;28;20032;-84
2023/06/19 04:16:18;;;;;;;16.33;7.85;;;17.20;99.90;;;;;;5062368;28;20024;-82
2023/06/19 04:18:44;;;;;;;22.02;8.88;;;17.20;99.90;;;;;;5051610;28;20029;-82
2023/06/19 04:21:09;;;;;;;23.00;11.15;;;17.30;99.90;;;;;;5044463;28;20029;-83
2023/06/19 04:23:35;;;;;;;26.98;13.48;;;17.40;99.90;;;;;;5043352;28;20123;-85
2023/06/19 04:26:02;;;;;;;31.05;14.55;;;17.50;99.90;;;;;;5046611;28;20418;-81
2023/06/19 04:28:27;;;;;;;29.73;16.15;;;17.50;99.90;;;;;;5044264;28;20025;-82
2023/06/19 04:31:00;;;;;;;27.33;14.30;;;17.60;99.90;;;;;;5072681;28;20363;-81
2023/06/19 04:33:29;;;;;;;22.85;11.77;;;17.60;99.90;;;;;;5055311;28;20024;-81
2023/06/19 04:35:55;;;;;;;20.90;8.35;;;17.70;99.90;;;;;;5047459;28;20028;-83
2023/06/19 04:38:24;;;;;;;13.38;6.95;;;17.80;99.90;;;;;;5061840;28;20052;-83
2023/06/19 04:40:53;;;;;;;10.68;6.65;;;17.90;99.90;;;;;;5045572;28;20032;-82
2023/06/19 04:43:19;;;;;;;8.90;5.45;;;17.90;99.90;;;;;;5054050;28;20029;-82
2023/06/19 04:45:45;;;;;;;13.73;6.05;;;18.00;99.90;;;;;;5067540;28;20033;-81
2023/06/19 04:48:11;;;;;;;11.77;5.80;;;18.10;99.90;;;;;;5036833;28;20036;-83
2023/06/19 04:50:37;;;;;;;11.68;5.95;;;18.60;99.90;;;;;;5041247;28;20040;-81
2023/06/19 04:53:03;;;;;;;12.25;5.90;;;;;;;;;;5053453;28;20024;-81
2023/06/19 04:55:30;;;;;;;20.40;6.78;;;18.30;99.90;;;;;;5061213;28;20044;-83
2023/06/19 04:57:56;;;;;;;16.17;7.10;;;18.40;99.90;;;;;;5047389;28;20028;-84
2023/06/19 05:00:23;;;;;;;13.85;6.55;;;18.40;99.90;;;;;;5068946;28;20040;-83
2023/06/19 05:02:50;;;;;;;11.52;6.65;;;18.50;99.90;;;;;;5045982;28;20111;-83
2023/06/19 05:05:16;;;;;;;11.05;6.70;;;18.60;99.90;;;;;;5051615;28;20041;-82
2023/06/19 05:07:42;;;;;;;14.43;6.38;;;18.70;99.90;;;;;;5048530;28;20024;-81
2023/06/19 05:10:08;;;;;;;16.27;6.03;;;18.80;99.90;;;;;;5036964;28;20028;-82
2023/06/19 05:12:37;;;;;;;12.88;6.25;;;18.90;99.90;;;;;;5036314;28;20032;-86
2023/06/19 05:15:03;;;;;;;11.95;5.78;;;19.00;99.90;;;;;;5036161;28;20033;-81
2023/06/19 05:17:29;;;;;;;9.98;5.65;;;;;;;;;;5036272;28;20119;-82
2023/06/19 05:19:55;;;;;;;8.32;4.82;;;;;;;;;;5040723;28;20033;-84
2023/06/19 05:22:23;;;;;;;10.27;5.93;;;;;;;;;;5036519;28;20036;-84
2023/06/19 05:24:49;;;;;;;12.68;5.70;;;19.40;99.90;;;;;;5036325;28;20041;-81
2023/06/19 05:27:15;;;;;;;12.38;5.88;;;19.40;99.90;;;;;;5053883;28;20029;-81
2023/06/19 05:29:41;;;;;;;9.57;5.30;;;19.50;99.90;;;;;;5053901;28;20503;-83
2023/06/19 05:32:07;;;;;;;10.93;6.15;;;19.50;99.90;;;;;;5053965;28;20067;-83
2023/06/19 05:34:33;;;;;;;9.63;5.20;;;19.60;99.90;;;;;;5034904;28;20033;-84
2023/06/19 05:37:00;;;;;;;12.52;5.43;;;19.70;99.90;;;;;;5035937;28;20102;-83
2023/06/19 05:39:26;;;;;;;10.35;5.57;;;19.80;99.90;;;;;;5036157;28;20040;-81
2023/06/19 05:41:52;;;;;;;17.63;6.40;;;19.90;99.90;;;;;;5035928;28;20028;-82
2023/06/19 05:44:18;;;;;;;13.13;6.10;;;20.00;99.90;;;;;;5036030;28;20119;-82
2023/06/19 05:46:44;;;;;;;13.75;6.40;;;20.10;99.90;;;;;;5036200;28;20175;-83
2023/06/19 05:49:10;;;;;;;16.48;7.20;;;20.20;99.90;;;;;;5053832;28;20404;-83
2023/06/19 05:51:36;;;;;;;17.60;6.70;;;20.30;99.90;;;;;;5035967;28;20029;-82
2023/06/19 05:54:03;;;;;;;13.10;7.65;;;20.40;99.90;;;;;;5035952;28;20119;-83
2023/06/19 05:56:33;;;;;;;18.58;7.30;;;20.50;99.90;;;;;;5057234;28;20021;-81
2023/06/19 05:59:02;;;;;;;15.13;7.80;;;20.70;99.90;;;;;;5053850;28;20075;-82
2023/06/19 06:01:29;;;;;;;17.58;7.30;;;20.80;99.90;;;;;;5053755;28;20021;-84
2023/06/19 06:03:55;;;;;;;20.27;8.18;;;20.90;99.90;;;;;;5051256;28;20044;-83
2023/06/19 06:06:22;;;;;;;16.88;7.88;;;21.00;99.90;;;;;;5072111;28;20025;-84
2023/06/19 06:08:48;;;;;;;13.20;7.55;;;21.10;99.90;;;;;;5072495;28;20025;-84
2023/06/19 06:11:14;;;;;;;14.93;6.95;;;21.10;99.90;;;;;;5072324;28;20024;-85
2023/06/19 06:13:40;;;;;;;15.57;6.47;;;21.20;99.90;;;;;;5073287;28;20043;-85
2023/06/19 06:16:06;;;;;;;18.08;7.55;;;21.20;99.90;;;;;;5072413;28;20490;-83
2023/06/19 06:18:31;;;;;;;16.42;6.75;;;21.40;99.90;;;;;;5072108;28;20032;-81
2023/06/19 06:20:59;;;;;;;10.27;5.22;;;21.50;99.90;;;;;;5072409;28;20127;-82
2023/06/19 06:23:25;;;;;;;15.55;6.55;;;21.60;99.90;;;;;;5073286;28;21896;-83
2023/06/19 06:25:51;;;;;;;16.30;6.60;;;21.70;99.90;;;;;;5072508;28;20030;-82
2023/06/19 06:28:17;;;;;;;12.60;5.22;;;21.80;99.90;;;;;;5072294;28;20485;-84
2023/06/19 06:30:43;;;;;;;12.90;5.60;;;21.90;99.90;;;;;;5072104;28;20052;-84
2023/06/19 06:33:09;;;;;;;11.95;5.60;;;21.90;99.90;;;;;;5072294;28;20056;-83
2023/06/19 06:35:35;;;;;;;13.00;4.97;;;22.00;99.90;;;;;;5072355;28;20056;-83
2023/06/19 06:38:02;;;;;;;12.52;5.72;;;22.10;99.90;;;;;;5071993;28;20115;-82
2023/06/19 06:40:28;;;;;;;14.43;5.15;;;22.20;99.90;;;;;;5072281;28;20063;-83
2023/06/19 06:42:54;;;;;;;25.00;6.30;;;22.60;99.90;;;;;;5072241;28;20059;-83
2023/06/19 06:45:21;;;;;;;9.95;5.20;;;;;;;;;;5072084;28;20541;-84
2023/06/19 06:47:47;;;;;;;13.23;5.63;;;;;;;;;;5075798;28;20033;-83
2023/06/19 06:50:13;;;;;;;9.45;5.38;;;;;;;;;;5076215;28;20021;-83
2023/06/19 06:52:39;;;;;;;8.65;4.57;;;;;;;;;;5075539;28;20060;-82
2023/06/19 06:55:05;;;;;;;11.18;5.13;;;;;;;;;;5079345;28;20028;-83
2023/06/19 06:57:31;;;;;;;12.65;5.28;;;;;;;;;;5090782;28;20031;-84
2023/06/19 06:59:57;;;;;;;19.58;5.60;;;;;;;;;;5075540;28;20031;-85
2023/06/19 07:02:23;;;;;;;9.70;5.00;;;;;;;;;;5075832;28;20489;-84
2023/06/19 07:04:50;;;;;;;9.95;5.32;;;;;;;;;;5075440;28;20102;-82
2023/06/19 07:07:16;;;;;;;12.02;6.45;;;;;;;;;;5075309;28;20452;-85
2023/06/19 07:09:42;;;;;;;12.63;5.68;;;;;;;;;;5075621;28;20116;-84
2023/06/19 07:12:08;;;;;;;16.83;7.18;;;;;;;;;;5075633;28;20028;-83
2023/06/19 07:14:34;;;;;;;12.40;7.28;;;;;;;;;;5075277;28;20360;-83
2023/06/19 07:17:00;;;;;;;14.57;6.57;;;;;;;;;;5081494;28;20076;-84
2023/06/19 07:19:27;;;;;;;14.27;6.20;;;;;;;;;;5094113;28;20029;-83
2023/06/19 07:21:53;;;;;;;17.42;7.10;;;;;;;;;;5075448;28;20039;-83
2023/06/19 07:24:19;;;;;;;16.52;6.55;;;;;;;;;;5075377;28;20124;-82
2023/06/19 07:26:48;;;;;;;21.17;7.05;;;;;;;;;;5075786;28;20391;-84
2023/06/19 07:29:15;;;;;;;27.17;7.07;;;;;;;;;;5076487;28;20017;-85
2023/06/19 07:31:42;;;;;;;18.73;7.03;;;;;;;;;;5075404;28;20043;-84
2023/06/19 07:34:09;;;;;;;23.08;6.90;;;;;;;;;;5074844;28;20035;-84
2023/06/19 07:36:35;;;;;;;16.15;6.88;;;;;;;;;;5075070;28;20029;-82
2023/06/19 07:39:01;;;;;;;10.07;5.90;;;;;;;;;;5074933;28;20036;-84
2023/06/19 07:41:27;;;;;;;11.70;5.97;;;;;;;;;;5075767;28;20020;-84
2023/06/19 07:43:53;;;;;;;14.90;6.70;;;;;;;;;;5074881;28;20047;-83
2023/06/19 07:46:19;;;;;;;25.98;7.93;;;;;;;;;;5074733;28;20031;-84
2023/06/19 07:48:46;;;;;;;15.70;6.18;;;;;;;;;;5075812;28;20021;-83
2023/06/19 07:51:12;;;;;;;15.35;6.43;;;;;;;;;;5074942;28;20070;-82
2023/06/19 07:53:39;;;;;;;17.00;5.15;;;;;;;;;;5074584;28;20024;-83
2023/06/19 07:56:05;;;;;;;17.23;5.97;;;;;;;;;;5081677;28;20021;-83
2023/06/19 07:58:31;;;;;;;15.23;5.97;;;;;;;;;;5074373;28;20028;-83
2023/06/19 08:00:58;;;;;;;17.77;6.82;;;;;;;;;;5078968;28;20027;-86
2023/06/19 08:03:24;;;;;;;16.30;6.40;;;;;;;;;;5086498;28;20478;-85
2023/06/19 08:05:50;;;;;;;12.07;5.22;;;;;;;;;;5078817;28;20032;-82
2023/06/19 08:08:16;;;;;;;14.25;5.50;;;;;;;;;;5080233;28;20090;-81
2023/06/19 08:10:42;;;;;;;14.52;6.05;;;;;;;;;;5074478;28;20379;-83
2023/06/19 08:13:11;;;;;;;12.55;5.93;;;;;;;;;;5074318;28;20028;-83
2023/06/19 08:15:37;;;;;;;9.27;5.53;;;;;;;;;;5074057;28;20086;-85
2023/06/19 08:18:03;;;;;;;13.23;5.30;;;;;;;;;;5074463;28;20374;-82
2023/06/19 08:20:29;;;;;;;8.73;5.32;;;;;;;;;;5093870;28;20027;-82
2023/06/19 08:22:56;;;;;;;14.20;5.25;;;;;;;;;;5075768;28;20024;-81
2023/06/19 08:25:22;;;;;;;10.82;4.68;;;;;;;;;;5075414;28;20051;-81
2023/06/19 08:27:49;;;;;;;10.63;4.95;;;;;;;;;;5074162;28;20042;-84
2023/06/19 08:30:15;;;;;;;15.35;5.90;;;;;;;;;;5075513;28;20024;-84
2023/06/19 08:32:41;;;;;;;16.25;5.47;;;;;;;;;;5073913;28;20028;-83
2023/06/19 08:35:07;;;;;;;13.75;5.07;;;;;;;;;;5075235;28;20037;-84
2023/06/19 08:37:34;;;;;;;11.27;5.32;;;;;;;;;;5073719;28;20086;-83
2023/06/19 08:40:00;;;;;;;10.77;4.65;;;;;;;;;;5073655;28;20028;-82
2023/06/19 08:42:26;;;;;;;9.65;4.47;;;;;;;;;;5075396;28;20062;-85
2023/06/19 08:44:52;;;;;;;10.32;5.07;;;;;;;;;;5073400;28;20064;-83
2023/06/19 08:47:18;;;;;;;6.22;4.28;;;;;;;;;;5073860;28;20046;-81
2023/06/19 08:49:44;;;;;;;6.22;3.75;;;;;;;;;;5073644;28;20031;-81
2023/06/19 08:52:11;;;;;;;12.00;4.18;;;;;;;;;;5073281;28;20042;-83
2023/06/19 08:54:43;;;;;;;9.00;4.43;;;;;;;;;;5073480;28;20081;-82
2023/06/19 08:57:10;;;;;;;5.97;4.20;;;;;;;;;;5073598;28;20059;-81
2023/06/19 08:59:36;;;;;;;13.18;4.95;;;;;;;;;;5074509;28;20031;-84
2023/06/19 09:02:03;;;;;;;11.80;4.63;;;;;;;;;;5073522;28;20029;-83
2023/06/19 09:04:30;;;;;;;7.90;5.03;;;;;;;;;;5072726;28;20049;-82
2023/06/19 09:07:02;;;;;;;12.02;4.45;;;;;;;;;;5073281;28;20497;-83
2023/06/19 09:09:28;;;;;;;14.40;4.80;;;;;;;;;;5072330;28;20035;-85
2023/06/19 09:12:05;;;;;;;6.28;3.78;;;;;;;;;;5074192;28;20024;-82
2023/06/19 09:14:33;;;;;;;7.25;4.38;;;;;;;;;;5073310;28;20437;-81
2023/06/19 09:16:59;;;;;;;8.07;4.35;;;;;;;;;;5073100;28;20043;-83
2023/06/19 09:19:25;;;;;;;8.57;4.32;;;;;;;;;;5072960;28;20078;-83
2023/06/19 09:21:52;;;;;;;6.82;4.20;;;;;;;;;;5073076;28;20063;-82
2023/06/19 09:24:18;;;;;;;9.60;4.38;;;;;;;;;;5074157;28;20032;-81
2023/06/19 09:26:44;;;;;;;9.00;3.85;;;;;;;;;;5072613;28;20028;-82
2023/06/19 09:29:18;;;;;;;8.80;4.45;;;;;;;;;;5072871;28;20020;-86
2023/06/19 09:31:45;;;;;;;8.75;4.25;;;;;;;;;;5072842;28;20496;-85
2023/06/19 09:34:11;;;;;;;8.20;3.95;;;;;;;;;;5072308;28;20038;-81
2023/06/19 09:36:37;;;;;;;7.10;3.67;;;;;;;;;;5073605;28;20016;-83
2023/06/19 09:39:04;;;;;;;7.80;3.38;;;;;;;;;;5074515;28;20028;-82
2023/06/19 09:41:30;;;;;;;5.70;3.70;;;;;;;;;;5073665;28;20489;-80
2023/06/19 09:43:59;;;;;;;24.02;5.50;;;;;;;;;;5072577;28;20440;-82
2023/06/19 09:46:32;;;;;;;7.25;4.07;;;;;;;;;;5072389;28;20490;-80
2023/06/19 09:49:01;;;;;;;7.55;3.60;;;;;;;;;;5073929;28;20054;-80
2023/06/19 09:51:31;;;;;;;4.90;3.53;;;;;;;;;;5073939;28;20020;-83
2023/06/19 09:53:59;;;;;;;9.20;4.28;;;;;;;;;;5072181;28;20074;-79
2023/06/19 09:56:26;;;;;;;7.20;4.10;;;;;;;;;;5083493;28;20017;-81
2023/06/19 09:58:54;;;;;;;9.50;3.95;;;;;;;;;;5073790;28;20482;-83
2023/06/19 10:01:20;;;;;;;7.28;3.65;;;;;;;;;;5073571;28;20013;-82
2023/06/19 10:03:46;;;;;;;6.20;3.90;;;;;;;;;;5072043;28;20084;-82
2023/06/19 10:06:16;;;;;;;7.22;3.95;;;;;;;;;;5072448;28;20039;-81
2023/06/19 10:08:43;;;;;;;8.40;3.78;;;;;;;;;;5073034;28;20103;-79
2023/06/19 10:11:10;;;;;;;10.43;4.82;;;;;;;;;;5073682;28;20024;-79
2023/06/19 10:13:40;;;;;;;6.03;4.00;;;;;;;;;;5072226;28;20404;-82
2023/06/19 10:16:07;;;;;;;6.10;4.07;;;;;;;;;;5072097;28;20111;-81
2023/06/19 10:18:45;;;;;;;6.20;3.92;;;;;;;;;;5072400;28;20025;-81
2023/06/19 10:21:18;;;;;;;6.97;4.25;;;;;;;;;;5075357;28;20031;-81
2023/06/19 10:23:53;;;;;;;6.97;3.47;;;;;;;;;;5097974;28;20023;-80
2023/06/19 10:26:21;;;;;;;8.23;3.80;;;;;;;;;;5078355;28;20029;-82
2023/06/19 10:28:48;;;;;;;7.30;3.97;;;;;;;;;;5076959;28;20049;-82
2023/06/19 10:31:14;;;;;;;5.80;3.58;;;;;;;;;;5076320;28;20040;-83
2023/06/19 10:33:40;;;;;;;6.10;3.50;;;;;;;;;;5076120;28;20451;-81
2023/06/19 10:36:16;;;;;;;7.88;4.10;;;;;;;;;;5075939;28;20025;-81
2023/06/19 10:38:47;;;;;;;8.23;3.58;;;;;;;;;;5076075;28;20537;-83
2023/06/19 10:41:17;;;;;;;5.00;3.47;;;;;;;;;;5076466;28;20167;-84
2023/06/19 10:43:53;;;;;;;6.80;3.78;;;;;;;;;;5078068;28;20249;-80
2023/06/19 10:46:19;;;;;;;5.35;3.58;;;;;;;;;;5096406;28;20130;-83
2023/06/19 10:48:46;;;;;;;6.90;3.42;;;;;;;;;;5076068;28;20063;-80
2023/06/19 21:49:22;;;;;;;15.50;8.20;;;21.80;99.90;;;;;;5070883;28;21041;-82
2023/06/19 21:51:48;;;;;;;17.95;9.32;;;21.50;99.90;;;;;;5069380;28;20094;-83
2023/06/19 21:54:13;;;;;;;17.80;8.68;;;21.50;99.90;;;;;;5069649;28;20079;-81
2023/06/19 21:56:39;;;;;;;14.40;9.38;;;21.50;99.90;;;;;;5069837;28;20032;-81
2023/06/19 21:59:05;;;;;;;17.52;9.25;;;21.50;99.90;;;;;;5082573;28;20029;-80
2023/06/19 22:01:31;;;;;;;14.55;8.77;;;21.50;99.90;;;;;;5050223;28;20057;-83
2023/06/19 22:03:57;;;;;;;14.32;9.20;;;21.50;99.90;;;;;;5069854;28;20059;-83
2023/06/19 22:06:23;;;;;;;13.20;8.38;;;21.60;99.90;;;;;;5069289;28;20047;-85
2023/06/19 22:08:49;;;;;;;13.80;9.52;;;21.50;99.90;;;;;;5070146;28;20451;-81
2023/06/19 22:11:15;;;;;;;16.33;9.00;;;21.60;99.90;;;;;;5068906;28;20040;-81
2023/06/19 22:13:44;;;;;;;16.63;8.43;;;21.60;99.90;;;;;;5067201;28;20095;-83
2023/06/19 22:16:09;;;;;;;15.35;9.10;;;21.60;99.90;;;;;;5051551;28;20028;-83
2023/06/19 22:18:35;;;;;;;17.33;9.45;;;21.60;99.90;;;;;;5066854;28;20043;-83
2023/06/19 22:21:01;;;;;;;16.70;8.68;;;21.60;99.90;;;;;;5051141;28;20032;-85
2023/06/19 22:23:27;;;;;;;14.60;8.98;;;21.50;99.90;;;;;;5050842;28;20082;-81
2023/06/19 22:25:53;;;;;;;13.25;9.10;;;21.50;99.90;;;;;;5051401;28;20445;-83
2023/06/19 22:28:18;;;;;;;16.58;8.57;;;21.50;99.90;;;;;;5051025;28;20029;-84
2023/06/19 22:30:44;;;;;;;14.60;9.10;;;21.50;99.90;;;;;;5051368;28;20028;-82
2023/06/19 22:33:10;;;;;;;16.67;9.77;;;21.50;99.90;;;;;;5049366;28;20048;-82
2023/06/19 22:35:36;;;;;;;14.75;9.27;;;21.50;99.90;;;;;;5035720;28;20144;-81
2023/06/19 22:38:01;;;;;;;15.52;9.30;;;21.50;99.90;;;;;;5044570;28;20040;-83
2023/06/19 22:40:27;;;;;;;18.52;9.40;;;21.40;99.90;;;;;;5051014;28;20104;-82
2023/06/19 22:42:53;;;;;;;16.75;8.30;;;21.40;99.90;;;;;;5051191;28;20024;-82
2023/06/19 22:45:19;;;;;;;20.50;9.68;;;21.30;99.90;;;;;;5051296;28;20029;-82
2023/06/19 22:47:45;;;;;;;13.95;9.20;;;21.30;99.90;;;;;;5067205;28;20048;-83
2023/06/19 22:50:11;;;;;;;18.08;8.95;;;21.20;99.90;;;;;;5067863;28;20031;-87
2023/06/19 22:52:37;;;;;;;14.48;9.85;;;21.20;99.90;;;;;;5068621;28;20036;-83
2023/06/19 22:55:04;;;;;;;15.07;9.20;;;21.20;99.90;;;;;;5085382;28;20017;-83
2023/06/19 22:57:34;;;;;;;15.57;8.57;;;21.20;99.90;;;;;;5086074;28;20363;-83
2023/06/19 23:00:01;;;;;;;14.43;9.27;;;21.20;99.90;;;;;;5059883;28;20029;-83
2023/06/19 23:02:26;;;;;;;15.85;9.45;;;21.20;99.90;;;;;;5071026;28;20021;-82
2023/06/19 23:04:55;;;;;;;16.33;9.88;;;21.10;99.90;;;;;;5056639;28;20056;-83
2023/06/19 23:07:21;;;;;;;19.45;8.90;;;21.10;99.90;;;;;;5071712;28;20029;-80
2023/06/19 23:09:47;;;;;;;17.70;9.35;;;21.00;99.90;;;;;;5056108;28;20423;-84
2023/06/19 23:12:13;;;;;;;17.30;8.55;;;21.00;99.90;;;;;;5071812;28;20459;-82
2023/06/19 23:14:39;;;;;;;18.80;9.95;;;20.90;99.90;;;;;;5071936;28;20087;-82
2023/06/19 23:17:05;;;;;;;16.95;9.63;;;20.90;99.90;;;;;;5071681;28;20115;-82
2023/06/19 23:19:30;;;;;;;15.82;9.27;;;20.90;99.90;;;;;;5071743;28;20107;-81
2023/06/19 23:21:56;;;;;;;18.67;9.60;;;20.90;99.90;;;;;;5055116;28;20512;-82
2023/06/19 23:24:22;;;;;;;15.68;9.38;;;20.80;99.90;;;;;;5071207;28;20371;-85
2023/06/19 23:26:48;;;;;;;14.68;9.80;;;20.80;99.90;;;;;;5054810;28;20387;-83
2023/06/19 23:29:14;;;;;;;15.82;9.60;;;20.80;99.90;;;;;;5070858;28;20370;-82
2023/06/19 23:31:40;;;;;;;19.27;10.50;;;20.80;99.90;;;;;;5066322;28;20040;-84
2023/06/19 23:34:06;;;;;;;15.57;9.77;;;20.70;99.90;;;;;;5051478;28;20029;-82
2023/06/19 23:36:32;;;;;;;16.23;10.57;;;20.70;99.90;;;;;;5055620;28;20025;-83
2023/06/19 23:38:58;;;;;;;19.60;12.68;;;20.60;99.90;;;;;;5054823;28;20115;-83
2023/06/19 23:41:24;;;;;;;20.08;11.43;;;20.60;99.90;;;;;;5055863;28;20113;-81
2023/06/19 23:43:50;;;;;;;14.55;10.73;;;20.60;99.90;;;;;;5054187;28;20052;-85
2023/06/19 23:46:17;;;;;;;17.88;10.15;;;20.60;99.90;;;;;;5054589;28;20091;-83
2023/06/19 23:48:43;;;;;;;16.42;10.05;;;20.60;99.90;;;;;;5054120;28;20127;-84
2023/06/19 23:51:09;;;;;;;16.80;10.23;;;20.50;99.90;;;;;;5055433;28;20025;-81
2023/06/19 23:53:35;;;;;;;17.17;9.70;;;20.50;99.90;;;;;;5055650;28;20025;-82
2023/06/19 23:56:01;;;;;;;18.60;10.07;;;20.50;99.90;;;;;;5055716;28;20025;-81
2023/06/19 23:58:26;;;;;;;17.58;10.02;;;20.40;99.90;;;;;;5055659;28;20028;-82
